createdAt,value
2018-07-17T00:00:31.493Z,49.63
2018-07-17T00:03:00.620Z,49.67
2018-07-17T00:05:29.731Z,49.55
2018-07-17T00:07:58.813Z,49.43
2018-07-17T00:10:27.926Z,49.84
2018-07-17T00:12:57.038Z,49.76
2018-07-17T00:15:26.197Z,50.03
2018-07-17T00:17:55.281Z,50.35
2018-07-17T00:20:24.394Z,49.95
2018-07-17T00:22:53.556Z,50.17
2018-07-17T00:25:22.643Z,49.83
2018-07-17T00:27:51.806Z,49.85
2018-07-17T00:30:20.966Z,49.86
2018-07-17T00:32:50.050Z,50.14
2018-07-17T00:35:19.199Z,49.95
2018-07-17T00:37:48.365Z,49.72
2018-07-17T00:40:17.515Z,49.43
2018-07-17T00:42:46.626Z,49.46
2018-07-17T00:45:15.761Z,49.97
2018-07-17T00:47:44.902Z,50.27
2018-07-17T00:50:13.978Z,50.07
2018-07-17T00:52:43.091Z,50.31
2018-07-17T00:55:12.149Z,50.07
2018-07-17T00:57:41.251Z,50.25
2018-07-17T01:00:10.316Z,50.23
2018-07-17T01:02:44.856Z,50.26
2018-07-17T01:05:19.373Z,50.33
2018-07-17T01:07:53.806Z,50.49
2018-07-17T01:10:28.167Z,50.39
2018-07-17T01:12:56.464Z,50.46
2018-07-17T01:15:29.425Z,50.63
2018-07-17T01:17:58.823Z,50.47
2018-07-17T01:20:27.913Z,49.79
2018-07-17T01:22:57.001Z,49.88
2018-07-17T01:25:26.081Z,50.10
2018-07-17T01:27:55.208Z,50.08
2018-07-17T01:30:24.318Z,50.31
2018-07-17T01:32:53.449Z,50.35
2018-07-17T01:35:22.532Z,50.78
2018-07-17T01:37:51.722Z,50.98
2018-07-17T01:40:20.869Z,51.13
2018-07-17T01:42:49.924Z,51.35
2018-07-17T01:45:19.048Z,51.48
2018-07-17T01:47:48.212Z,51.12
2018-07-17T01:50:17.401Z,51.15
2018-07-17T01:52:46.545Z,51.46
2018-07-17T01:55:15.639Z,51.56
2018-07-17T01:57:44.805Z,51.84
2018-07-17T02:00:13.928Z,51.98
2018-07-17T02:02:43.060Z,52.26
2018-07-17T02:05:12.183Z,52.23
2018-07-17T02:07:41.294Z,52.90
2018-07-17T02:10:10.454Z,52.83
2018-07-17T02:12:39.647Z,53.05
2018-07-17T02:15:08.819Z,53.33
2018-07-17T02:17:37.881Z,53.18
2018-07-17T02:20:07.103Z,52.90
2018-07-17T02:22:36.199Z,52.87
2018-07-17T02:25:05.304Z,53.58
2018-07-17T02:27:34.403Z,53.33
2018-07-17T02:30:03.544Z,53.46
2018-07-17T02:32:32.441Z,52.94
2018-07-17T02:35:01.555Z,53.48
2018-07-17T02:37:30.698Z,53.04
2018-07-17T02:39:59.778Z,53.25
2018-07-17T02:42:28.920Z,53.44
2018-07-17T02:44:58.060Z,52.86
2018-07-17T02:47:27.216Z,53.12
2018-07-17T02:49:56.338Z,53.38
2018-07-17T02:52:25.418Z,53.50
2018-07-17T02:54:54.579Z,53.56
2018-07-17T02:57:23.695Z,53.60
2018-07-17T02:59:52.761Z,53.67
2018-07-17T03:02:21.862Z,53.86
2018-07-17T03:04:50.956Z,53.46
2018-07-17T03:07:20.123Z,53.48
2018-07-17T03:09:49.246Z,53.44
2018-07-17T03:12:18.429Z,53.45
2018-07-17T03:14:47.600Z,53.63
2018-07-17T03:17:16.728Z,53.90
2018-07-17T03:19:45.860Z,53.70
2018-07-17T03:22:15.019Z,53.51
2018-07-17T03:24:44.210Z,53.31
2018-07-17T03:27:13.251Z,52.92
2018-07-17T03:29:42.418Z,52.89
2018-07-17T03:32:11.478Z,52.92
2018-07-17T03:34:40.677Z,53.05
2018-07-17T03:37:09.779Z,53.00
2018-07-17T03:39:38.928Z,53.10
2018-07-17T03:42:08.157Z,53.19
2018-07-17T03:44:37.254Z,53.06
2018-07-17T03:47:06.370Z,53.53
2018-07-17T03:49:35.548Z,53.77
2018-07-17T03:52:04.682Z,53.75
2018-07-17T03:54:33.766Z,53.59
2018-07-17T03:57:02.937Z,53.74
2018-07-17T03:59:32.069Z,53.64
2018-07-17T04:02:01.166Z,53.66
2018-07-17T04:04:30.303Z,53.70
2018-07-17T04:06:59.201Z,53.34
2018-07-17T04:09:28.307Z,53.10
2018-07-17T04:11:57.424Z,52.88
2018-07-17T04:14:26.542Z,52.60
2018-07-17T04:16:56.692Z,52.10
2018-07-17T04:19:26.868Z,52.02
2018-07-17T04:21:56.084Z,52.21
2018-07-17T04:24:25.382Z,52.08
2018-07-17T04:26:54.908Z,51.28
2018-07-17T04:29:24.010Z,50.79
2018-07-17T04:31:53.266Z,50.32
2018-07-17T04:34:22.262Z,50.89
2018-07-17T04:36:51.365Z,50.96
2018-07-17T04:39:20.592Z,50.61
2018-07-17T04:41:49.746Z,50.57
2018-07-17T04:44:18.888Z,50.03
2018-07-17T04:46:47.943Z,49.46
2018-07-17T04:49:22.995Z,49.56
2018-07-17T04:51:52.086Z,49.70
2018-07-17T04:54:21.239Z,49.74
2018-07-17T04:56:50.318Z,49.34
2018-07-17T04:59:19.482Z,49.03
2018-07-17T05:01:48.637Z,48.73
2018-07-17T05:04:17.751Z,48.71
2018-07-17T05:06:46.843Z,48.73
2018-07-17T05:09:15.987Z,48.75
2018-07-17T05:11:45.111Z,49.89
2018-07-17T05:14:14.209Z,49.15
2018-07-17T05:16:43.294Z,48.82
2018-07-17T05:19:12.431Z,49.04
2018-07-17T05:21:41.562Z,48.41
2018-07-17T05:24:10.729Z,48.93
2018-07-17T05:26:39.865Z,48.34
2018-07-17T05:29:09.028Z,47.84
2018-07-17T05:31:38.200Z,47.35
2018-07-17T05:34:07.306Z,47.20
2018-07-17T05:36:36.457Z,47.07
2018-07-17T05:39:08.291Z,46.72
2018-07-17T05:41:37.393Z,46.73
2018-07-17T05:44:06.661Z,46.28
2018-07-17T05:46:35.882Z,45.78
2018-07-17T05:49:04.755Z,45.33
2018-07-17T05:51:33.837Z,44.60
2018-07-17T05:54:02.925Z,37.64
2018-07-17T05:56:32.037Z,32.04
2018-07-17T05:59:01.193Z,28.30
2018-07-17T06:01:30.261Z,26.77
2018-07-17T06:03:59.383Z,24.30
2018-07-17T06:06:28.460Z,23.03
2018-07-17T06:08:57.545Z,22.26
2018-07-17T06:11:26.626Z,21.97
2018-07-17T06:13:55.741Z,21.74
2018-07-17T06:16:24.854Z,21.16
2018-07-17T06:18:54.065Z,20.76
2018-07-17T06:21:23.118Z,20.37
2018-07-17T06:23:52.201Z,20.33
2018-07-17T06:26:21.330Z,20.65
2018-07-17T06:28:50.462Z,20.46
2018-07-17T06:31:19.561Z,21.10
2018-07-17T06:33:48.686Z,23.08
2018-07-17T06:36:17.788Z,21.59
2018-07-17T06:38:46.921Z,20.33
2018-07-17T06:41:16.030Z,21.08
2018-07-17T06:43:45.166Z,20.58
2018-07-17T06:46:14.289Z,20.47
2018-07-17T06:48:43.402Z,20.33
2018-07-17T06:51:12.512Z,22.51
2018-07-17T06:53:41.715Z,24.67
2018-07-17T06:56:10.807Z,27.72
2018-07-17T06:58:39.929Z,30.32
2018-07-17T07:01:09.008Z,31.63
2018-07-17T07:03:38.124Z,32.21
2018-07-17T07:06:07.249Z,33.34
2018-07-17T07:08:36.421Z,33.26
2018-07-17T07:11:05.535Z,34.21
2018-07-17T07:13:34.730Z,34.44
2018-07-17T07:16:03.829Z,34.36
2018-07-17T07:18:33.073Z,34.91
2018-07-17T07:21:02.193Z,34.65
2018-07-17T07:23:31.342Z,35.28
2018-07-17T07:26:00.446Z,35.18
2018-07-17T07:28:29.570Z,35.79
2018-07-17T07:30:58.750Z,35.91
2018-07-17T07:33:27.842Z,35.95
2018-07-17T07:35:56.942Z,35.96
2018-07-17T07:38:26.019Z,36.09
2018-07-17T07:40:55.125Z,35.82
2018-07-17T07:43:24.201Z,35.54
2018-07-17T07:45:53.278Z,36.11
2018-07-17T07:48:22.411Z,35.89
2018-07-17T07:50:51.548Z,36.03
2018-07-17T07:53:20.691Z,36.76
2018-07-17T07:55:49.798Z,36.38
2018-07-17T07:58:18.930Z,35.74
2018-07-17T08:00:48.047Z,35.49
2018-07-17T08:03:17.187Z,34.89
2018-07-17T08:05:46.249Z,35.03
2018-07-17T08:08:15.357Z,34.38
2018-07-17T08:10:44.451Z,34.60
2018-07-17T08:13:13.692Z,35.25
2018-07-17T08:15:42.780Z,34.33
2018-07-17T08:18:11.878Z,33.56
2018-07-17T08:20:41.042Z,33.15
2018-07-17T08:23:10.191Z,33.21
2018-07-17T08:25:39.249Z,32.83
2018-07-17T08:28:08.471Z,32.71
2018-07-17T08:30:37.572Z,32.14
2018-07-17T08:33:06.708Z,31.21
2018-07-17T08:35:35.809Z,31.95
2018-07-17T08:38:04.916Z,31.16
2018-07-17T08:40:33.981Z,31.33
2018-07-17T08:43:03.085Z,30.81
2018-07-17T08:45:32.231Z,29.92
2018-07-17T08:48:01.405Z,29.35
2018-07-17T08:50:30.485Z,30.25
2018-07-17T08:52:59.610Z,28.48
2018-07-17T08:55:28.703Z,25.33
2018-07-17T08:57:57.847Z,22.39
2018-07-17T09:00:26.962Z,22.04
2018-07-17T09:02:56.069Z,20.87
2018-07-17T09:05:25.216Z,20.79
2018-07-17T09:07:54.334Z,19.81
2018-07-17T09:10:23.451Z,20.31
2018-07-17T09:12:52.534Z,19.82
2018-07-17T09:15:21.642Z,21.15
2018-07-17T09:17:50.775Z,19.29
2018-07-17T09:20:19.941Z,19.30
2018-07-17T09:22:49.119Z,18.50
2018-07-17T09:25:18.197Z,18.91
2018-07-17T09:27:47.286Z,19.59
2018-07-17T09:30:16.399Z,20.47
2018-07-17T09:32:45.490Z,20.64
2018-07-17T09:35:14.535Z,19.59
2018-07-17T09:37:43.425Z,20.19
2018-07-17T09:40:12.351Z,20.36
2018-07-17T09:42:41.458Z,20.56
2018-07-17T09:45:10.556Z,20.84
2018-07-17T09:47:39.673Z,21.01
2018-07-17T09:50:08.775Z,20.21
2018-07-17T09:52:37.870Z,21.06
2018-07-17T09:55:07.272Z,20.20
2018-07-17T09:57:42.777Z,21.21
2018-07-17T10:00:16.007Z,21.18
2018-07-17T10:02:45.145Z,20.18
2018-07-17T10:05:14.279Z,19.89
2018-07-17T10:07:43.394Z,22.04
2018-07-17T10:10:12.548Z,22.55
2018-07-17T10:12:41.627Z,21.35
2018-07-17T10:15:10.747Z,20.66
2018-07-17T10:17:39.883Z,19.90
2018-07-17T10:20:09.574Z,20.60
2018-07-17T10:22:38.827Z,20.05
2018-07-17T10:25:08.573Z,21.77
2018-07-17T10:27:37.986Z,23.96
2018-07-17T10:30:07.320Z,24.26
2018-07-17T10:32:36.678Z,23.69
2018-07-17T10:35:06.366Z,23.69
2018-07-17T10:37:35.523Z,24.47
2018-07-17T10:40:05.386Z,24.66
2018-07-17T10:42:35.400Z,24.69
2018-07-17T10:45:04.594Z,24.73
2018-07-17T10:47:33.709Z,25.64
2018-07-17T10:50:02.805Z,25.51
2018-07-17T10:52:31.976Z,24.29
2018-07-17T10:55:01.141Z,24.57
2018-07-17T10:57:30.288Z,25.11
2018-07-17T10:59:59.388Z,24.67
2018-07-17T11:02:28.616Z,24.45
2018-07-17T11:04:57.772Z,24.83
2018-07-17T11:07:26.895Z,25.18
2018-07-17T11:09:56.007Z,25.22
2018-07-17T11:12:25.188Z,24.99
2018-07-17T11:14:54.418Z,25.31
2018-07-17T11:17:23.490Z,25.40
2018-07-17T11:19:52.598Z,25.12
2018-07-17T11:22:21.668Z,24.87
2018-07-17T11:24:50.782Z,24.34
2018-07-17T11:27:19.874Z,25.02
2018-07-17T11:29:48.938Z,25.11
2018-07-17T11:32:18.113Z,25.70
2018-07-17T11:34:47.337Z,25.75
2018-07-17T11:37:16.542Z,25.71
2018-07-17T11:39:45.637Z,26.05
2018-07-17T11:42:14.751Z,25.49
2018-07-17T11:44:43.839Z,24.64
2018-07-17T11:47:12.990Z,24.87
2018-07-17T11:49:42.207Z,24.28
2018-07-17T11:52:11.246Z,24.43
2018-07-17T11:54:40.319Z,24.41
2018-07-17T11:57:09.442Z,24.00
2018-07-17T11:59:38.798Z,24.94
2018-07-17T12:02:07.812Z,25.29
2018-07-17T12:04:36.924Z,25.83
2018-07-17T12:07:06.011Z,24.81
2018-07-17T12:09:35.093Z,24.63
2018-07-17T12:12:04.229Z,24.11
2018-07-17T12:14:33.376Z,24.74
2018-07-17T12:17:02.521Z,25.11
2018-07-17T12:19:31.787Z,24.61
2018-07-17T12:22:00.834Z,24.32
2018-07-17T12:24:29.983Z,24.18
2018-07-17T12:26:59.058Z,25.06
2018-07-17T12:29:28.154Z,25.13
2018-07-17T12:31:57.291Z,24.35
2018-07-17T12:34:26.417Z,23.59
2018-07-17T12:36:55.585Z,22.63
2018-07-17T12:39:24.705Z,23.27
2018-07-17T12:41:53.823Z,21.88
2018-07-17T12:44:23.015Z,22.17
2018-07-17T12:46:52.048Z,23.24
2018-07-17T12:49:21.190Z,23.08
2018-07-17T12:51:50.309Z,23.71
2018-07-17T12:54:19.470Z,24.71
2018-07-17T12:56:48.629Z,24.94
2018-07-17T12:59:17.695Z,23.73
2018-07-17T13:01:46.834Z,23.28
2018-07-17T13:04:15.914Z,23.24
2018-07-17T13:06:45.058Z,24.09
2018-07-17T13:09:14.178Z,24.86
2018-07-17T13:11:43.254Z,25.27
2018-07-17T13:14:12.311Z,24.24
2018-07-17T13:16:41.402Z,23.62
2018-07-17T13:19:10.498Z,22.93
2018-07-17T13:21:39.545Z,22.10
2018-07-17T13:24:08.671Z,22.59
2018-07-17T13:26:37.732Z,23.04
2018-07-17T13:29:07.180Z,22.15
2018-07-17T13:31:36.212Z,22.52
2018-07-17T13:34:05.261Z,23.26
2018-07-17T13:36:34.372Z,22.99
2018-07-17T13:39:04.153Z,22.09
2018-07-17T13:41:33.180Z,22.15
2018-07-17T13:44:02.295Z,22.65
2018-07-17T13:46:31.395Z,22.15
2018-07-17T13:49:00.564Z,23.13
2018-07-17T13:51:29.797Z,23.93
2018-07-17T13:53:58.883Z,23.66
2018-07-17T13:56:28.103Z,22.96
2018-07-17T13:58:57.222Z,22.82
2018-07-17T14:01:26.324Z,22.67
2018-07-17T14:03:55.462Z,23.14
2018-07-17T14:06:24.628Z,22.84
2018-07-17T14:08:53.712Z,23.59
2018-07-17T14:11:22.806Z,22.62
2018-07-17T14:13:51.890Z,22.96
2018-07-17T14:16:21.057Z,23.67
2018-07-17T14:18:50.080Z,23.96
2018-07-17T14:21:19.183Z,23.96
2018-07-17T14:23:48.374Z,23.84
2018-07-17T14:26:17.415Z,23.97
2018-07-17T14:28:46.565Z,23.17
2018-07-17T14:31:15.647Z,23.03
2018-07-17T14:33:44.726Z,22.94
2018-07-17T14:36:13.851Z,23.98
2018-07-17T14:38:42.999Z,23.83
2018-07-17T14:41:12.096Z,23.61
2018-07-17T14:43:41.144Z,24.01
2018-07-17T14:46:10.237Z,23.15
2018-07-17T14:48:39.871Z,23.03
2018-07-17T14:51:12.320Z,22.79
2018-07-17T14:53:41.423Z,23.37
2018-07-17T14:56:10.668Z,23.32
2018-07-17T14:58:39.790Z,23.34
2018-07-17T15:01:08.886Z,22.55
2018-07-17T15:03:38.128Z,22.99
2018-07-17T15:06:07.189Z,22.85
2018-07-17T15:08:36.347Z,22.98
2018-07-17T15:11:05.424Z,24.83
2018-07-17T15:13:34.555Z,24.41
2018-07-17T15:16:03.722Z,23.83
2018-07-17T15:18:32.814Z,23.95
2018-07-17T15:21:01.981Z,24.29
2018-07-17T15:23:31.282Z,23.90
2018-07-17T15:26:00.423Z,23.50
2018-07-17T15:28:29.532Z,24.12
2018-07-17T15:30:58.610Z,26.36
2018-07-17T15:33:27.732Z,26.64
2018-07-17T15:35:56.850Z,26.57
2018-07-17T15:38:26.069Z,26.87
2018-07-17T15:40:55.189Z,26.43
2018-07-17T15:43:24.340Z,26.38
2018-07-17T15:45:53.741Z,26.06
2018-07-17T15:48:22.811Z,25.84
2018-07-17T15:50:51.880Z,25.99
2018-07-17T15:53:21.032Z,25.55
2018-07-17T15:55:50.174Z,25.65
2018-07-17T15:58:19.264Z,25.97
2018-07-17T16:00:48.368Z,26.36
2018-07-17T16:03:17.493Z,26.20
2018-07-17T16:05:46.783Z,26.32
2018-07-17T16:08:15.833Z,25.84
2018-07-17T16:10:44.924Z,25.76
2018-07-17T16:13:14.012Z,26.41
2018-07-17T16:15:43.219Z,26.75
2018-07-17T16:18:12.390Z,25.88
2018-07-17T16:20:41.474Z,25.38
2018-07-17T16:23:10.658Z,26.08
2018-07-17T16:25:39.869Z,26.33
2018-07-17T16:28:09.018Z,26.69
2018-07-17T16:30:38.088Z,26.46
2018-07-17T16:33:07.135Z,26.27
2018-07-17T16:35:36.250Z,26.80
2018-07-17T16:38:05.338Z,27.00
2018-07-17T16:40:34.639Z,26.59
2018-07-17T16:43:03.746Z,26.93
2018-07-17T16:45:32.799Z,26.35
2018-07-17T16:48:01.995Z,26.59
2018-07-17T16:50:31.092Z,26.53
2018-07-17T16:53:00.230Z,26.48
2018-07-17T16:55:29.354Z,26.33
2018-07-17T16:57:58.419Z,26.54
2018-07-17T17:00:27.571Z,26.79
2018-07-17T17:02:56.739Z,26.99
2018-07-17T17:05:25.978Z,26.74
2018-07-17T17:07:55.095Z,27.00
2018-07-17T17:10:24.174Z,26.92
2018-07-17T17:12:53.359Z,26.99
2018-07-17T17:15:22.481Z,26.93
2018-07-17T17:17:51.496Z,27.51
2018-07-17T17:20:20.761Z,26.86
2018-07-17T17:22:49.900Z,26.70
2018-07-17T17:25:19.010Z,26.73
2018-07-17T17:27:48.107Z,26.69
2018-07-17T17:30:17.204Z,26.65
2018-07-17T17:32:46.385Z,26.68
2018-07-17T17:35:15.438Z,26.63
2018-07-17T17:37:44.574Z,27.14
2018-07-17T17:40:13.723Z,27.21
2018-07-17T17:42:42.803Z,27.51
2018-07-17T17:45:11.976Z,27.66
2018-07-17T17:47:41.076Z,27.29
2018-07-17T17:50:10.184Z,27.59
2018-07-17T17:52:39.592Z,28.05
2018-07-17T17:55:08.876Z,28.00
2018-07-17T17:57:37.988Z,27.54
2018-07-17T18:00:07.418Z,27.85
2018-07-17T18:02:36.329Z,27.70
2018-07-17T18:05:05.940Z,28.20
2018-07-17T18:07:35.083Z,27.67
2018-07-17T18:10:04.220Z,28.14
2018-07-17T18:12:33.282Z,28.13
2018-07-17T18:15:02.416Z,28.07
2018-07-17T18:17:31.604Z,28.34
2018-07-17T18:20:00.707Z,28.18
2018-07-17T18:22:29.848Z,28.35
2018-07-17T18:24:58.998Z,29.08
2018-07-17T18:27:28.151Z,28.67
2018-07-17T18:29:57.312Z,29.03
2018-07-17T18:32:26.431Z,29.37
2018-07-17T18:34:55.553Z,29.58
2018-07-17T18:37:24.650Z,30.12
2018-07-17T18:39:53.784Z,28.68
2018-07-17T18:42:22.878Z,29.35
2018-07-17T18:44:52.096Z,29.52
2018-07-17T18:47:21.221Z,29.22
2018-07-17T18:50:11.998Z,29.52
2018-07-17T18:52:19.476Z,29.66
2018-07-17T18:54:48.579Z,29.85
2018-07-17T18:57:17.752Z,30.03
2018-07-17T18:59:46.918Z,30.39
2018-07-17T19:02:16.010Z,30.43
2018-07-17T19:04:45.097Z,30.05
2018-07-17T19:07:14.185Z,31.00
2018-07-17T19:09:43.294Z,30.91
2018-07-17T19:12:12.452Z,31.07
2018-07-17T19:14:41.532Z,31.09
2018-07-17T19:17:10.637Z,32.67
2018-07-17T19:19:39.730Z,31.34
2018-07-17T19:22:08.851Z,32.21
2018-07-17T19:24:37.966Z,32.78
2018-07-17T19:27:07.050Z,32.24
2018-07-17T19:29:36.166Z,32.28
2018-07-17T19:32:05.284Z,33.66
2018-07-17T19:34:34.401Z,32.79
2018-07-17T19:37:03.567Z,32.93
2018-07-17T19:39:32.666Z,33.11
2018-07-17T19:42:01.803Z,33.59
2018-07-17T19:44:30.908Z,33.41
2018-07-17T19:47:00.046Z,32.91
2018-07-17T19:49:29.155Z,33.16
2018-07-17T19:51:58.314Z,33.45
2018-07-17T19:54:27.754Z,33.16
2018-07-17T19:56:56.899Z,33.54
2018-07-17T19:59:26.044Z,33.77
2018-07-17T20:01:55.407Z,34.47
2018-07-17T20:04:24.614Z,34.21
2018-07-17T20:06:53.759Z,34.40
2018-07-17T20:09:22.887Z,34.50
2018-07-17T20:11:51.982Z,34.65
2018-07-17T20:14:21.084Z,34.50
2018-07-17T20:16:50.280Z,35.17
2018-07-17T20:19:19.410Z,34.78
2018-07-17T20:21:48.516Z,35.43
2018-07-17T20:24:17.593Z,34.98
2018-07-17T20:26:46.839Z,35.52
2018-07-17T20:29:15.886Z,35.57
2018-07-17T20:31:44.990Z,35.76
2018-07-17T20:34:14.081Z,35.30
2018-07-17T20:36:43.185Z,35.17
2018-07-17T20:39:12.455Z,35.28
2018-07-17T20:41:41.958Z,35.64
2018-07-17T20:44:11.145Z,35.74
2018-07-17T20:46:40.323Z,35.80
2018-07-17T20:49:09.426Z,35.45
2018-07-17T20:51:38.548Z,35.89
2018-07-17T20:54:07.626Z,35.60
2018-07-17T20:56:36.721Z,35.81
2018-07-17T20:59:05.912Z,35.83
2018-07-17T21:01:35.090Z,36.00
2018-07-17T21:04:04.222Z,36.24
2018-07-17T21:06:33.361Z,36.13
2018-07-17T21:09:02.511Z,36.46
2018-07-17T21:11:31.615Z,36.17
2018-07-17T21:14:00.731Z,36.49
2018-07-17T21:16:29.867Z,36.62
2018-07-17T21:18:58.953Z,36.68
2018-07-17T21:21:28.057Z,36.75
2018-07-17T21:23:57.126Z,36.43
2018-07-17T21:26:26.294Z,36.90
2018-07-17T21:28:55.642Z,36.79
2018-07-17T21:31:24.733Z,36.64
2018-07-17T21:33:53.870Z,36.92
2018-07-17T21:36:23.052Z,36.53
2018-07-17T21:38:52.117Z,36.70
2018-07-17T21:41:21.227Z,36.95
2018-07-17T21:43:50.388Z,37.10
2018-07-17T21:46:19.503Z,36.93
2018-07-17T21:48:48.794Z,36.81
2018-07-17T21:51:17.887Z,36.31
2018-07-17T21:53:47.143Z,36.39
2018-07-17T21:56:16.239Z,36.50
2018-07-17T21:58:45.302Z,36.94
2018-07-17T22:01:14.425Z,37.58
2018-07-17T22:03:43.556Z,37.50
2018-07-17T22:06:12.640Z,37.58
2018-07-17T22:08:41.698Z,37.72
2018-07-17T22:11:10.761Z,38.29
2018-07-17T22:13:39.749Z,37.91
2018-07-17T22:16:08.785Z,38.30
2018-07-17T22:18:37.920Z,38.41
2018-07-17T22:21:07.287Z,38.97
2018-07-17T22:23:36.341Z,39.37
2018-07-17T22:26:05.495Z,39.25
2018-07-17T22:28:34.590Z,39.84
2018-07-17T22:31:03.667Z,39.57
2018-07-17T22:33:32.768Z,39.48
2018-07-17T22:36:01.878Z,40.00
2018-07-17T22:38:30.982Z,40.92
2018-07-17T22:41:00.090Z,41.18
2018-07-17T22:43:29.198Z,41.07
2018-07-17T22:45:58.287Z,41.02
2018-07-17T22:48:27.414Z,41.34
2018-07-17T22:50:56.547Z,41.07
2018-07-17T22:53:25.646Z,40.76
2018-07-17T22:55:54.871Z,40.42
2018-07-17T22:58:24.005Z,40.16
2018-07-17T23:00:53.134Z,39.69
2018-07-17T23:03:22.329Z,39.54
2018-07-17T23:05:51.487Z,39.87
2018-07-17T23:08:20.683Z,39.44
2018-07-17T23:10:49.840Z,39.72
2018-07-17T23:13:19.074Z,39.52
2018-07-17T23:15:48.195Z,39.53
2018-07-17T23:18:17.262Z,39.69
2018-07-17T23:20:46.315Z,40.07
2018-07-17T23:23:15.438Z,39.85
2018-07-17T23:25:44.530Z,40.04
2018-07-17T23:28:13.629Z,39.70
2018-07-17T23:30:42.727Z,40.04
2018-07-17T23:33:11.944Z,39.93
2018-07-17T23:35:41.065Z,40.37
2018-07-17T23:38:10.158Z,40.19
2018-07-17T23:40:39.281Z,40.42
2018-07-17T23:43:08.371Z,40.44
2018-07-17T23:45:37.485Z,40.49
2018-07-17T23:48:06.607Z,40.45
2018-07-17T23:50:35.720Z,40.62
2018-07-17T23:53:04.831Z,41.17
2018-07-17T23:55:33.999Z,41.25
2018-07-17T23:58:03.084Z,41.50
